Terminal Aerodrome Forecast
Issued by NWS

Home | Current Version | Previous Version | Text Only | Print | Product List | Glossary On
Versions: 1 2 3 4 5 6 7 8 9 10 11 12 13 14 15 16
369
FTUS43 KDLH 262003 AAB
TAFHIB
TAF AMD
KHIB 262003Z 2620/2718 32015G20KT P6SM BKN050
     FM270000 35005KT P6SM SCT090
     FM270600 27005KT P6SM VCSH BKN090
     FM271400 34010G19KT P6SM BKN025=

USA.gov is the U.S. government's official web portal to all federal, state and local government web resources and services.